Time;durP1;ratioP1;P1;durP2;ratioP2;P2;SDS_P1;SDS_P2;PMS_P1;PMS_P2;Temp;Humidity;BMP_temperature;BMP_pressure;BME280_temperature;BME280_humidity;BME280_pressure;Samples;Min_cycle;Max_cycle;Signal;HPM_P1;HPM_P2
2022/09/06 00:00:37;;;;;;;9.32;5.70;;;17.40;99.90;;;;;;5088298;28;20038;-69
2022/09/06 00:03:03;;;;;;;7.10;4.90;;;17.40;99.90;;;;;;5104392;27;20084;-69
2022/09/06 00:05:31;;;;;;;9.82;5.15;;;17.30;99.90;;;;;;5103428;27;20445;-69
2022/09/06 00:08:00;;;;;;;10.95;5.05;;;17.20;99.90;;;;;;5104343;28;20684;-69
2022/09/06 00:10:28;;;;;;;11.68;5.38;;;17.20;99.90;;;;;;5106467;28;20038;-71
2022/09/06 00:12:54;;;;;;;9.35;5.10;;;17.20;99.90;;;;;;5090533;28;20085;-69
2022/09/06 00:15:21;;;;;;;10.30;5.30;;;17.20;99.90;;;;;;5104669;27;20080;-69
2022/09/06 00:17:47;;;;;;;10.50;5.80;;;17.20;99.90;;;;;;5107033;27;20061;-69
2022/09/06 00:20:13;;;;;;;8.95;5.22;;;17.20;99.90;;;;;;5107455;28;20028;-69
2022/09/06 00:22:39;;;;;;;11.23;4.78;;;17.20;99.90;;;;;;5111281;27;20028;-69
2022/09/06 00:25:06;;;;;;;8.75;5.22;;;17.20;99.90;;;;;;5102851;27;20068;-69
2022/09/06 00:27:33;;;;;;;11.32;5.47;;;17.10;99.90;;;;;;5102005;28;20081;-71
2022/09/06 00:29:59;;;;;;;8.43;4.93;;;17.20;99.90;;;;;;5105038;28;20485;-69
2022/09/06 00:32:25;;;;;;;12.35;5.10;;;17.10;99.90;;;;;;5107994;27;20038;-69
2022/09/06 00:34:50;;;;;;;7.97;5.30;;;17.10;99.90;;;;;;5108480;28;20027;-68
2022/09/06 00:37:16;;;;;;;9.55;5.15;;;17.10;99.90;;;;;;5104341;28;20043;-69
2022/09/06 00:39:42;;;;;;;10.30;5.47;;;17.10;99.90;;;;;;5107663;28;20112;-70
2022/09/06 00:42:09;;;;;;;9.68;5.38;;;17.10;99.90;;;;;;5105913;28;20077;-69
2022/09/06 00:44:35;;;;;;;9.38;5.40;;;17.10;99.90;;;;;;5103967;28;20032;-70
2022/09/06 00:47:01;;;;;;;10.23;5.80;;;17.10;99.90;;;;;;5108923;27;20043;-70
2022/09/06 00:49:31;;;;;;;10.98;5.10;;;17.10;99.90;;;;;;5093842;28;20051;-69
2022/09/06 00:52:09;;;;;;;10.50;5.05;;;17.10;99.90;;;;;;5108106;27;20106;-68
2022/09/06 00:54:35;;;;;;;12.40;5.18;;;17.10;99.90;;;;;;5104572;28;20099;-69
2022/09/06 00:57:01;;;;;;;9.68;5.60;;;17.00;99.90;;;;;;5106141;28;20031;-70
2022/09/06 00:59:30;;;;;;;7.47;5.40;;;17.00;99.90;;;;;;5105434;28;20423;-70
2022/09/06 01:01:55;;;;;;;11.63;6.00;;;17.00;99.90;;;;;;5103786;28;20028;-69
2022/09/06 01:04:22;;;;;;;8.98;5.70;;;16.90;99.90;;;;;;5109691;28;20461;-68
2022/09/06 01:06:57;;;;;;;8.90;5.72;;;16.90;99.90;;;;;;5107641;28;20405;-70
2022/09/06 01:09:34;;;;;;;9.32;6.63;;;16.80;99.90;;;;;;5106610;28;20102;-69
2022/09/06 01:12:29;;;;;;;9.73;5.72;;;16.80;99.90;;;;;;5087630;28;20031;-71
2022/09/06 01:15:27;;;;;;;11.13;6.18;;;16.70;99.90;;;;;;5104740;28;20115;-68
2022/09/06 01:18:18;;;;;;;10.68;5.40;;;16.60;99.90;;;;;;5105453;28;20039;-69
2022/09/06 01:21:04;;;;;;;7.88;5.75;;;16.60;99.90;;;;;;5107024;28;20040;-68
2022/09/06 01:23:42;;;;;;;9.57;6.40;;;16.60;99.90;;;;;;5105808;27;20097;-69
2022/09/06 01:26:45;;;;;;;8.95;5.72;;;16.60;99.90;;;;;;5112644;27;20042;-69
2022/09/06 01:29:33;;;;;;;8.40;5.82;;;16.60;99.90;;;;;;5112187;27;20031;-69
2022/09/06 01:32:25;;;;;;;11.23;6.30;;;16.50;99.90;;;;;;5080081;28;20046;-68
2022/09/06 01:34:58;;;;;;;8.48;7.10;;;16.50;99.90;;;;;;5109887;27;20032;-69
2022/09/06 01:37:24;;;;;;;9.55;6.30;;;16.50;99.90;;;;;;5105199;28;20068;-70
2022/09/06 01:39:50;;;;;;;12.18;7.35;;;16.40;99.90;;;;;;5112225;27;20076;-68
2022/09/06 01:42:21;;;;;;;12.13;7.45;;;16.40;99.90;;;;;;5109447;27;20482;-69
2022/09/06 01:44:54;;;;;;;11.65;7.32;;;16.40;99.90;;;;;;5103090;27;20026;-70
2022/09/06 01:47:23;;;;;;;9.88;6.47;;;16.40;99.90;;;;;;5114826;27;20493;-70
2022/09/06 01:50:01;;;;;;;12.00;7.57;;;16.30;99.90;;;;;;5122607;27;20034;-70
2022/09/06 01:53:12;;;;;;;12.35;8.95;;;16.20;99.90;;;;;;5111600;27;20397;-70
2022/09/06 01:55:53;;;;;;;15.32;8.02;;;16.20;99.90;;;;;;5111190;27;20046;-69
2022/09/06 01:58:21;;;;;;;12.35;7.97;;;16.10;99.90;;;;;;5107456;27;20039;-69
2022/09/06 02:01:13;;;;;;;11.07;7.30;;;16.10;99.90;;;;;;5107542;28;20041;-69
2022/09/06 02:04:06;;;;;;;10.65;7.22;;;16.10;99.90;;;;;;5090079;28;20027;-69
2022/09/06 02:06:46;;;;;;;12.98;7.80;;;16.10;99.90;;;;;;5106641;27;20104;-69
2022/09/06 02:09:14;;;;;;;;;;;16.00;99.90;;;;;;5116303;27;20031;-69
2022/09/06 02:11:49;;;;;;;13.70;6.70;;;16.00;99.90;;;;;;5106110;27;19964;-70
2022/09/06 02:14:21;;;;;;;13.82;8.07;;;16.10;99.90;;;;;;5108891;27;20042;-69
2022/09/06 02:16:49;;;;;;;9.02;6.38;;;16.10;99.90;;;;;;5102940;27;20038;-69
2022/09/06 02:19:43;;;;;;;12.32;6.43;;;16.00;99.90;;;;;;5114520;27;20098;-69
2022/09/06 02:22:13;;;;;;;17.25;6.95;;;16.10;99.90;;;;;;5101260;28;20512;-69
2022/09/06 02:24:43;;;;;;;11.07;6.40;;;16.20;99.90;;;;;;5106701;27;20088;-69
2022/09/06 02:27:09;;;;;;;;;;;16.20;99.90;;;;;;5110963;27;20039;-71
2022/09/06 02:29:35;;;;;;;13.55;6.32;;;16.30;99.90;;;;;;5090778;28;19912;-69
2022/09/06 02:32:13;;;;;;;13.50;5.85;;;16.30;99.90;;;;;;5113833;27;20036;-70
2022/09/06 02:34:40;;;;;;;11.43;6.50;;;16.30;99.90;;;;;;5108145;27;20043;-69
2022/09/06 02:37:06;;;;;;;12.00;6.18;;;16.30;99.90;;;;;;5108811;27;20039;-69
2022/09/06 02:39:32;;;;;;;13.48;5.80;;;16.30;99.90;;;;;;5100963;27;20031;-71
2022/09/06 02:42:00;;;;;;;12.13;6.07;;;16.30;99.90;;;;;;5104462;28;20055;-69
2022/09/06 02:44:25;;;;;;;11.77;5.80;;;16.30;99.90;;;;;;5110245;27;20036;-69
2022/09/06 02:46:51;;;;;;;9.73;5.43;;;16.20;99.90;;;;;;5119270;27;20049;-69
2022/09/06 02:49:16;;;;;;;9.25;5.45;;;16.20;99.90;;;;;;5115616;27;20102;-69
2022/09/06 02:51:42;;;;;;;10.15;5.45;;;16.10;99.90;;;;;;5118716;27;20071;-69
2022/09/06 02:54:08;;;;;;;8.10;5.32;;;16.00;99.90;;;;;;5113081;27;20031;-70
2022/09/06 02:56:35;;;;;;;9.70;6.05;;;16.00;99.90;;;;;;5108826;27;20063;-69
2022/09/06 02:59:04;;;;;;;8.43;5.43;;;16.00;99.90;;;;;;5108132;27;20047;-70
2022/09/06 03:01:30;;;;;;;9.53;5.60;;;15.90;99.90;;;;;;5093794;28;20031;-69
2022/09/06 03:03:56;;;;;;;9.88;5.60;;;15.80;99.90;;;;;;5108910;27;20023;-70
2022/09/06 03:06:22;;;;;;;9.73;6.22;;;15.70;99.90;;;;;;5107342;27;20586;-69
2022/09/06 03:08:48;;;;;;;12.60;6.82;;;15.60;99.90;;;;;;5108705;27;20039;-69
2022/09/06 03:11:14;;;;;;;16.77;9.70;;;15.60;99.90;;;;;;5109145;28;20032;-70
2022/09/06 03:13:39;;;;;;;13.68;8.35;;;15.70;99.90;;;;;;5103897;28;20433;-69
2022/09/06 03:16:05;;;;;;;13.63;8.10;;;15.70;99.90;;;;;;5106979;27;20034;-69
2022/09/06 03:18:31;;;;;;;13.93;8.30;;;15.70;99.90;;;;;;5110153;27;20063;-69
2022/09/06 03:20:57;;;;;;;17.02;8.27;;;15.80;99.90;;;;;;5108021;27;21107;-69
2022/09/06 03:23:26;;;;;;;12.43;7.43;;;15.70;99.90;;;;;;5090573;28;20038;-70
2022/09/06 03:25:52;;;;;;;14.98;8.10;;;15.70;99.90;;;;;;5107145;27;20036;-69
2022/09/06 03:28:19;;;;;;;15.88;8.13;;;15.70;99.90;;;;;;5097388;27;20054;-69
2022/09/06 03:30:47;;;;;;;17.02;8.35;;;15.80;99.90;;;;;;5107395;27;20120;-68
2022/09/06 03:33:12;;;;;;;19.17;9.40;;;15.90;99.90;;;;;;5111721;27;20084;-69
2022/09/06 03:35:39;;;;;;;11.55;7.13;;;15.90;99.90;;;;;;5111166;27;20054;-69
2022/09/06 03:38:04;;;;;;;10.73;6.95;;;15.90;99.90;;;;;;5108602;27;20044;-68
2022/09/06 03:40:30;;;;;;;11.43;7.18;;;15.80;99.90;;;;;;5107812;27;20035;-69
2022/09/06 03:42:56;;;;;;;12.07;6.03;;;15.90;99.90;;;;;;5108644;27;20774;-69
2022/09/06 03:45:21;;;;;;;13.55;7.55;;;15.80;99.90;;;;;;5106981;27;20038;-69
2022/09/06 03:47:47;;;;;;;11.23;6.50;;;15.80;99.90;;;;;;5107917;27;20035;-69
2022/09/06 03:50:13;;;;;;;19.05;8.10;;;15.70;99.90;;;;;;5109942;27;20032;-69
2022/09/06 03:52:39;;;;;;;9.60;6.38;;;15.70;99.90;;;;;;5107409;28;20050;-69
2022/09/06 03:55:06;;;;;;;10.80;6.10;;;15.70;99.90;;;;;;5106652;27;20024;-70
2022/09/06 03:57:31;;;;;;;9.88;6.13;;;15.70;99.90;;;;;;5092276;27;20122;-69
2022/09/06 03:59:57;;;;;;;10.65;6.20;;;15.70;99.90;;;;;;5106738;27;20122;-69
2022/09/06 04:02:23;;;;;;;10.15;6.38;;;15.70;99.90;;;;;;5109271;27;20032;-69
2022/09/06 04:04:48;;;;;;;11.35;5.97;;;15.70;99.90;;;;;;5104898;27;20031;-69
2022/09/06 04:07:14;;;;;;;10.13;5.70;;;15.70;99.90;;;;;;5090121;28;20039;-69
2022/09/06 04:09:40;;;;;;;11.15;5.80;;;15.70;99.90;;;;;;5089016;28;20542;-70
2022/09/06 04:12:05;;;;;;;10.45;5.78;;;15.70;99.90;;;;;;5105211;28;20088;-68
2022/09/06 04:14:31;;;;;;;13.98;6.57;;;15.70;99.90;;;;;;5102359;28;20032;-70
2022/09/06 04:16:57;;;;;;;9.63;5.53;;;15.70;99.90;;;;;;5084507;28;20140;-69
2022/09/06 04:19:22;;;;;;;10.18;5.45;;;15.70;99.90;;;;;;5115005;27;20042;-68
2022/09/06 04:21:48;;;;;;;10.63;6.00;;;15.70;99.90;;;;;;5106145;27;20068;-68
2022/09/06 04:24:14;;;;;;;13.35;5.95;;;15.60;99.90;;;;;;5103270;27;20522;-69
2022/09/06 04:26:39;;;;;;;11.88;5.53;;;15.50;99.90;;;;;;5101726;27;20036;-70
2022/09/06 04:29:05;;;;;;;12.60;6.38;;;15.50;99.90;;;;;;5106112;27;20027;-69
2022/09/06 04:31:31;;;;;;;12.18;6.70;;;15.50;99.90;;;;;;5103705;28;20110;-70
2022/09/06 04:33:57;;;;;;;13.35;8.40;;;15.50;99.90;;;;;;5106150;28;20421;-68
2022/09/06 04:36:22;;;;;;;14.98;7.70;;;15.50;99.90;;;;;;5105687;28;20032;-69
2022/09/06 04:38:48;;;;;;;12.50;7.93;;;15.50;99.90;;;;;;5105258;28;20165;-69
2022/09/06 04:41:15;;;;;;;10.57;6.55;;;15.50;99.90;;;;;;5109150;27;20043;-69
2022/09/06 04:43:41;;;;;;;10.02;5.90;;;15.40;99.90;;;;;;5087218;27;20553;-70
2022/09/06 04:46:27;;;;;;;13.25;6.18;;;15.40;99.90;;;;;;5106903;28;20028;-69
2022/09/06 04:48:54;;;;;;;14.55;7.97;;;15.40;99.90;;;;;;5112207;27;20030;-71
2022/09/06 04:51:21;;;;;;;20.75;8.95;;;15.40;99.90;;;;;;5086453;28;20035;-69
2022/09/06 04:53:46;;;;;;;13.30;7.80;;;15.40;99.90;;;;;;5115927;27;20063;-69
2022/09/06 04:56:15;;;;;;;12.80;6.15;;;15.30;99.90;;;;;;5111285;27;20035;-69
2022/09/06 04:58:42;;;;;;;12.32;5.90;;;15.20;99.90;;;;;;5089914;28;20789;-68
2022/09/06 05:01:07;;;;;;;11.98;5.68;;;15.20;99.90;;;;;;5103766;28;20050;-69
2022/09/06 05:03:33;;;;;;;10.23;6.18;;;15.10;99.90;;;;;;5089967;28;20031;-69
2022/09/06 05:06:13;;;;;;;12.93;6.70;;;15.10;99.90;;;;;;5102406;28;20038;-68
2022/09/06 05:08:40;;;;;;;21.45;9.10;;;15.10;99.90;;;;;;5095341;28;20040;-69
2022/09/06 05:11:07;;;;;;;20.75;8.02;;;15.40;99.90;;;;;;5106480;28;20054;-69
2022/09/06 05:13:33;;;;;;;23.95;9.88;;;15.80;99.90;;;;;;5107117;28;20027;-69
2022/09/06 05:16:00;;;;;;;18.52;9.48;;;16.30;99.90;;;;;;5087030;28;20390;-69
2022/09/06 05:18:26;;;;;;;20.77;8.45;;;16.50;99.90;;;;;;5111450;28;20118;-69
2022/09/06 05:20:52;;;;;;;16.90;7.25;;;16.80;99.90;;;;;;5111985;28;20532;-69
2022/09/06 05:23:21;;;;;;;21.20;7.97;;;16.90;99.90;;;;;;5090208;28;20044;-69
2022/09/06 05:25:47;;;;;;;23.10;6.45;;;17.00;99.90;;;;;;5115175;28;20100;-69
2022/09/06 05:28:13;;;;;;;18.58;7.05;;;17.00;99.90;;;;;;5089842;28;20502;-70
2022/09/06 05:30:40;;;;;;;16.23;5.50;;;17.10;99.90;;;;;;5095789;28;20028;-71
2022/09/06 05:33:06;;;;;;;19.42;5.72;;;17.10;99.90;;;;;;5106873;28;20024;-69
2022/09/06 05:35:32;;;;;;;18.65;6.35;;;17.20;99.90;;;;;;5107784;28;20081;-69
2022/09/06 05:37:58;;;;;;;17.10;5.82;;;17.20;99.90;;;;;;5107210;28;20035;-69
2022/09/06 05:40:23;;;;;;;17.98;4.93;;;17.20;99.90;;;;;;5106583;28;21643;-70
2022/09/06 05:42:49;;;;;;;15.07;4.68;;;17.30;99.90;;;;;;5107513;28;20461;-69
2022/09/06 05:45:15;;;;;;;21.52;5.80;;;17.30;99.90;;;;;;5113713;28;20457;-69
2022/09/06 05:47:41;;;;;;;16.85;5.15;;;17.30;99.90;;;;;;5105384;28;20038;-69
2022/09/06 05:50:07;;;;;;;19.33;5.28;;;17.30;99.90;;;;;;5101448;28;20032;-70
2022/09/06 05:52:34;;;;;;;15.65;4.68;;;17.30;99.90;;;;;;5090588;28;20063;-69
2022/09/06 05:55:00;;;;;;;15.88;4.50;;;17.40;99.90;;;;;;5104032;28;20031;-69
2022/09/06 05:57:26;;;;;;;25.13;5.25;;;17.50;99.90;;;;;;5112191;28;20039;-70
2022/09/06 05:59:52;;;;;;;21.83;4.43;;;17.50;99.90;;;;;;5104916;28;20042;-69
2022/09/06 06:02:19;;;;;;;19.80;5.00;;;17.40;99.90;;;;;;5100798;28;20024;-68
2022/09/06 06:04:45;;;;;;;16.70;4.72;;;17.40;99.90;;;;;;5106572;28;20560;-69
2022/09/06 06:07:11;;;;;;;15.07;4.28;;;17.40;99.90;;;;;;5088393;28;20458;-69
2022/09/06 06:09:37;;;;;;;14.70;3.53;;;17.40;99.90;;;;;;5097570;28;20540;-69
2022/09/06 06:12:03;;;;;;;13.48;3.28;;;17.40;99.90;;;;;;5107918;27;20114;-71
2022/09/06 06:14:28;;;;;;;13.77;3.20;;;17.40;99.90;;;;;;5108942;27;20038;-70
2022/09/06 06:16:54;;;;;;;14.48;3.65;;;17.40;99.90;;;;;;5101825;28;20028;-70
2022/09/06 06:19:20;;;;;;;15.23;3.25;;;17.40;99.90;;;;;;5112183;27;20063;-69
2022/09/06 06:21:45;;;;;;;10.20;3.15;;;17.50;99.90;;;;;;5110078;28;20039;-70
2022/09/06 06:24:11;;;;;;;16.17;3.50;;;17.40;99.90;;;;;;5102272;27;20028;-69
2022/09/06 06:26:36;;;;;;;18.02;3.83;;;17.50;99.90;;;;;;5101592;28;20039;-69
2022/09/06 06:29:04;;;;;;;13.27;3.28;;;17.60;99.90;;;;;;5111044;27;20071;-69
2022/09/06 06:31:31;;;;;;;12.20;3.03;;;17.60;99.90;;;;;;5100827;27;20024;-69
2022/09/06 06:33:57;;;;;;;15.52;3.17;;;17.60;99.90;;;;;;5111890;27;20024;-69
2022/09/06 06:36:25;;;;;;;14.65;2.88;;;17.70;99.90;;;;;;5107719;27;20483;-69
2022/09/06 06:38:53;;;;;;;10.77;2.78;;;17.80;99.90;;;;;;5109471;27;20472;-71
2022/09/06 06:41:24;;;;;;;17.60;3.17;;;18.00;99.90;;;;;;5097002;27;20118;-69
2022/09/06 06:43:54;;;;;;;13.93;3.35;;;18.20;99.90;;;;;;5110264;28;20056;-69
2022/09/06 06:46:22;;;;;;;10.30;2.92;;;18.30;99.90;;;;;;5105326;28;20037;-69
2022/09/06 06:48:48;;;;;;;12.25;2.47;;;18.50;99.90;;;;;;5112178;27;20031;-69
2022/09/06 06:51:16;;;;;;;13.07;2.35;;;18.60;99.90;;;;;;5107768;27;20035;-71
2022/09/06 06:53:43;;;;;;;12.80;2.97;;;18.70;99.90;;;;;;5112661;27;20054;-71
2022/09/06 06:56:26;;;;;;;10.02;2.15;;;18.80;99.90;;;;;;5089624;28;20039;-70
2022/09/06 06:58:56;;;;;;;11.27;2.72;;;18.90;99.90;;;;;;5107726;27;20089;-69
2022/09/06 07:01:23;;;;;;;14.13;2.88;;;18.90;99.90;;;;;;5109928;27;20031;-70
2022/09/06 07:03:49;;;;;;;11.43;2.67;;;18.90;99.90;;;;;;5106561;27;20076;-69
2022/09/06 07:06:15;;;;;;;14.65;2.95;;;18.80;99.90;;;;;;5109284;27;20057;-69
2022/09/06 07:08:41;;;;;;;12.32;2.65;;;18.90;99.90;;;;;;5107082;27;20067;-70
2022/09/06 07:11:09;;;;;;;19.88;3.65;;;19.00;99.90;;;;;;5108810;27;20027;-69
2022/09/06 07:13:36;;;;;;;12.27;2.67;;;19.00;99.90;;;;;;5109725;28;20050;-68
2022/09/06 07:16:17;;;;;;;14.60;2.80;;;19.10;99.90;;;;;;5105845;27;20034;-68
2022/09/06 07:18:44;;;;;;;11.32;2.58;;;19.20;99.90;;;;;;5104048;27;20031;-70
2022/09/06 07:21:11;;;;;;;11.80;2.60;;;19.30;99.90;;;;;;5085125;28;20036;-72
2022/09/06 07:23:37;;;;;;;11.00;2.80;;;19.40;99.90;;;;;;5102319;28;20036;-70
2022/09/06 07:26:03;;;;;;;11.45;2.53;;;19.50;99.90;;;;;;5107498;27;20027;-70
2022/09/06 07:28:30;;;;;;;12.43;3.08;;;19.50;99.90;;;;;;5097698;28;20046;-71
2022/09/06 07:30:56;;;;;;;13.05;2.80;;;19.60;99.90;;;;;;5089666;28;20377;-71
2022/09/06 07:33:21;;;;;;;11.18;2.50;;;19.70;99.90;;;;;;5106331;28;20462;-70
2022/09/06 07:35:55;;;;;;;11.57;2.40;;;19.70;99.90;;;;;;5091521;28;20028;-71
2022/09/06 07:38:20;;;;;;;15.93;2.60;;;19.70;99.90;;;;;;5094377;28;20350;-70
2022/09/06 07:40:53;;;;;;;11.05;2.72;;;19.80;99.90;;;;;;5109683;28;20052;-72
2022/09/06 07:43:18;;;;;;;13.02;2.35;;;19.80;99.90;;;;;;5109446;28;20060;-70
2022/09/06 07:45:44;;;;;;;10.80;2.50;;;19.70;99.90;;;;;;5108090;28;20038;-70
2022/09/06 07:48:11;;;;;;;13.10;2.20;;;19.80;99.90;;;;;;5108948;28;20047;-72
2022/09/06 07:50:36;;;;;;;9.55;2.53;;;19.80;99.90;;;;;;5083918;28;20085;-71
2022/09/06 07:53:06;;;;;;;12.75;2.60;;;19.90;99.90;;;;;;5105279;28;20097;-71
2022/09/06 07:55:32;;;;;;;13.45;2.30;;;20.00;99.90;;;;;;5109157;28;20041;-70
2022/09/06 07:57:57;;;;;;;14.55;2.72;;;19.90;99.90;;;;;;5108963;28;20035;-71
2022/09/06 08:00:24;;;;;;;15.07;2.42;;;19.90;99.90;;;;;;5107882;28;20362;-72
2022/09/06 08:02:49;;;;;;;13.55;3.25;;;20.00;99.90;;;;;;5095767;28;20105;-71
2022/09/06 08:05:15;;;;;;;13.98;3.08;;;20.10;99.90;;;;;;5091764;28;20076;-71
2022/09/06 08:07:41;;;;;;;9.95;2.78;;;20.30;99.90;;;;;;5106827;28;20109;-70
2022/09/06 08:10:07;;;;;;;9.50;2.67;;;20.40;99.90;;;;;;5088839;27;20032;-72
2022/09/06 08:12:32;;;;;;;15.07;2.95;;;20.30;99.90;;;;;;5099749;28;20039;-70
2022/09/06 08:14:58;;;;;;;10.63;2.58;;;20.30;99.90;;;;;;5106982;27;20032;-70
2022/09/06 08:17:24;;;;;;;9.95;2.60;;;20.30;99.90;;;;;;5102854;28;20481;-70
2022/09/06 08:19:49;;;;;;;11.52;2.65;;;20.20;99.90;;;;;;5108487;28;20051;-72
2022/09/06 08:22:15;;;;;;;12.73;2.67;;;20.20;99.90;;;;;;5108527;28;20080;-71
2022/09/06 08:24:41;;;;;;;10.80;3.03;;;20.20;99.90;;;;;;5108541;28;20051;-72
2022/09/06 08:27:06;;;;;;;11.73;2.72;;;20.10;99.90;;;;;;5107471;28;20051;-73
2022/09/06 08:29:33;;;;;;;13.27;2.50;;;20.10;99.90;;;;;;5102153;28;20107;-70
2022/09/06 08:31:59;;;;;;;11.07;2.67;;;20.10;99.90;;;;;;5108313;28;20035;-71
2022/09/06 08:34:24;;;;;;;10.13;2.40;;;20.00;99.90;;;;;;5108498;28;20060;-71
2022/09/06 08:36:50;;;;;;;13.40;3.10;;;19.90;99.90;;;;;;5108627;28;20080;-70
2022/09/06 08:39:16;;;;;;;12.20;3.03;;;19.90;99.90;;;;;;5108205;28;20043;-71
2022/09/06 08:41:47;;;;;;;11.25;2.63;;;19.80;99.90;;;;;;5089341;28;20063;-70
2022/09/06 08:44:28;;;;;;;10.35;2.42;;;19.80;99.90;;;;;;5103533;28;20549;-71
2022/09/06 08:46:57;;;;;;;11.57;2.70;;;19.80;99.90;;;;;;5102285;28;20046;-71
2022/09/06 08:49:31;;;;;;;10.50;2.53;;;19.80;99.90;;;;;;5107579;28;20023;-71
2022/09/06 08:52:21;;;;;;;14.02;2.90;;;19.90;99.90;;;;;;5108573;28;20517;-70
2022/09/06 08:54:53;;;;;;;12.75;2.92;;;20.00;99.90;;;;;;5108124;28;20074;-70
2022/09/06 08:57:39;;;;;;;12.77;2.88;;;20.10;99.90;;;;;;5108057;28;20051;-71
2022/09/06 09:00:12;;;;;;;9.27;2.50;;;20.10;99.90;;;;;;5108136;28;20028;-70
2022/09/06 09:02:48;;;;;;;13.32;2.85;;;20.10;99.90;;;;;;5090720;28;20028;-69
2022/09/06 09:05:27;;;;;;;12.93;2.20;;;20.10;99.90;;;;;;5087502;28;20107;-71
2022/09/06 09:08:03;;;;;;;11.93;2.85;;;20.20;99.90;;;;;;5086493;28;20043;-71
2022/09/06 09:10:38;;;;;;;8.23;2.58;;;20.20;99.90;;;;;;5087715;28;20044;-70
2022/09/06 09:13:06;;;;;;;16.05;2.47;;;20.20;99.90;;;;;;5093012;28;20036;-70
2022/09/06 09:15:35;;;;;;;15.00;3.55;;;20.20;99.90;;;;;;5099168;28;20116;-71
2022/09/06 09:18:01;;;;;;;15.13;3.03;;;20.30;99.90;;;;;;5107910;28;20023;-71
2022/09/06 09:20:27;;;;;;;21.48;2.70;;;20.30;99.90;;;;;;5108256;28;20036;-71
2022/09/06 09:22:52;;;;;;;15.48;3.40;;;20.30;99.90;;;;;;5107868;28;20034;-70
2022/09/06 09:25:23;;;;;;;15.15;2.85;;;20.40;99.90;;;;;;5107585;28;20142;-72
2022/09/06 09:27:56;;;;;;;17.38;2.80;;;20.60;99.90;;;;;;5108256;28;20119;-71
2022/09/06 09:30:23;;;;;;;16.83;3.03;;;20.60;99.90;;;;;;5107725;28;20027;-70
2022/09/06 09:32:49;;;;;;;12.57;2.20;;;20.60;99.90;;;;;;5088868;28;20046;-70
2022/09/06 09:35:39;;;;;;;13.50;2.58;;;20.60;99.90;;;;;;5091255;28;20054;-69
2022/09/06 09:38:11;;;;;;;17.85;3.60;;;20.70;99.90;;;;;;5107504;28;20040;-70
2022/09/06 09:40:48;;;;;;;15.90;3.03;;;20.70;99.90;;;;;;5110046;28;20019;-71
2022/09/06 09:43:21;;;;;;;16.38;3.00;;;20.70;99.90;;;;;;5111860;28;20047;-71
2022/09/06 09:46:11;;;;;;;13.07;2.78;;;20.60;99.90;;;;;;5111904;28;20085;-72
2022/09/06 09:48:39;;;;;;;12.05;2.55;;;20.50;99.90;;;;;;5093261;28;20035;-71
2022/09/06 09:51:23;;;;;;;14.80;2.35;;;20.50;99.90;;;;;;5111408;28;20371;-71
2022/09/06 09:53:54;;;;;;;13.15;2.45;;;20.40;99.90;;;;;;5111427;28;20020;-71
2022/09/06 09:56:28;;;;;;;13.02;2.33;;;20.50;99.90;;;;;;5110965;28;20020;-69
2022/09/06 09:58:55;;;;;;;11.55;1.95;;;20.50;99.90;;;;;;5111404;28;20492;-71
2022/09/06 10:01:31;;;;;;;15.30;3.20;;;20.40;99.90;;;;;;5087440;28;20031;-71
2022/09/06 10:04:03;;;;;;;14.93;2.40;;;20.40;99.90;;;;;;5102940;28;20033;-71
2022/09/06 10:06:29;;;;;;;12.93;2.50;;;20.40;99.90;;;;;;5092482;28;20024;-71
2022/09/06 10:08:55;;;;;;;14.40;2.67;;;20.30;99.90;;;;;;5092558;28;20684;-71
2022/09/06 10:11:49;;;;;;;17.85;2.40;;;20.30;99.90;;;;;;5111200;28;20106;-71
2022/09/06 10:14:49;;;;;;;16.27;3.03;;;20.30;99.90;;;;;;5111126;28;20035;-71
2022/09/06 10:17:30;;;;;;;20.02;2.80;;;20.30;99.90;;;;;;5111423;28;20073;-71
2022/09/06 10:20:00;;;;;;;17.77;2.90;;;20.20;99.90;;;;;;5111082;28;20023;-70
2022/09/06 10:22:31;;;;;;;18.55;3.15;;;20.20;99.90;;;;;;5111042;28;20032;-70
2022/09/06 10:25:31;;;;;;;15.93;2.63;;;20.20;99.90;;;;;;5092908;28;20028;-71
2022/09/06 10:28:25;;;;;;;12.70;2.47;;;20.20;99.90;;;;;;5110901;28;20039;-71
2022/09/06 10:31:04;;;;;;;15.10;2.63;;;20.20;99.90;;;;;;5109904;28;20085;-70
2022/09/06 10:33:35;;;;;;;15.98;3.15;;;20.20;99.90;;;;;;5097586;28;20066;-70
2022/09/06 10:36:03;;;;;;;18.67;2.85;;;20.30;99.90;;;;;;5091996;28;20038;-71
2022/09/06 10:38:52;;;;;;;16.45;2.95;;;20.30;99.90;;;;;;5106689;28;20067;-71
2022/09/06 10:41:55;;;;;;;16.73;3.45;;;20.40;99.90;;;;;;5092293;28;20028;-70
2022/09/06 10:44:36;;;;;;;14.57;2.75;;;20.40;99.90;;;;;;5091798;28;20051;-71
2022/09/06 10:47:13;;;;;;;18.40;3.40;;;20.50;99.90;;;;;;5098260;28;20479;-69
2022/09/06 10:49:44;;;;;;;12.30;2.45;;;20.40;99.90;;;;;;5091948;28;20043;-71
2022/09/06 10:52:14;;;;;;;14.60;3.15;;;20.50;99.90;;;;;;5109470;28;20039;-69
2022/09/06 10:54:40;;;;;;;16.80;3.20;;;20.50;99.90;;;;;;5101480;28;20149;-71
2022/09/06 10:57:22;;;;;;;13.27;2.90;;;20.40;99.90;;;;;;5101128;28;20111;-71
2022/09/06 11:00:00;;;;;;;16.70;2.67;;;20.40;99.90;;;;;;5104137;28;20037;-71
2022/09/06 11:02:40;;;;;;;14.80;2.55;;;20.40;99.90;;;;;;5108411;28;20036;-70
2022/09/06 11:05:19;;;;;;;15.52;2.60;;;20.30;99.90;;;;;;5091566;28;20050;-71
2022/09/06 11:07:56;;;;;;;10.77;1.95;;;20.30;99.90;;;;;;5101263;28;20051;-70
2022/09/06 11:10:36;;;;;;;14.48;2.40;;;20.30;99.90;;;;;;5104011;28;20103;-71
2022/09/06 11:13:04;;;;;;;12.95;2.42;;;20.20;99.90;;;;;;5109774;28;20034;-71
2022/09/06 11:15:44;;;;;;;16.58;3.22;;;20.30;99.90;;;;;;5102619;28;20034;-71
2022/09/06 11:18:31;;;;;;;23.25;3.35;;;20.30;99.90;;;;;;5095127;28;20070;-71
2022/09/06 11:21:35;;;;;;;16.92;3.03;;;20.30;99.90;;;;;;5104181;28;20039;-70
2022/09/06 11:24:12;;;;;;;11.90;2.90;;;20.30;99.90;;;;;;5103585;27;20139;-71
2022/09/06 11:27:12;;;;;;;15.48;2.50;;;20.40;99.90;;;;;;5092133;28;20035;-70
2022/09/06 11:29:45;;;;;;;11.98;2.60;;;20.60;99.90;;;;;;5105642;28;20032;-70
2022/09/06 11:32:32;;;;;;;12.38;2.70;;;20.90;99.90;;;;;;5108590;28;20059;-71
2022/09/06 11:35:01;;;;;;;14.25;3.10;;;21.10;99.90;;;;;;5109108;28;20513;-70
2022/09/06 11:37:48;;;;;;;13.35;2.42;;;21.20;99.90;;;;;;5105958;28;20040;-69
2022/09/06 11:40:21;;;;;;;11.85;2.88;;;21.40;99.90;;;;;;5108916;28;20142;-70
2022/09/06 11:42:50;;;;;;;8.93;2.42;;;21.60;99.90;;;;;;5107729;28;20764;-70
2022/09/06 11:45:39;;;;;;;11.97;2.37;;;22.00;99.90;;;;;;5101968;28;20088;-71
2022/09/06 11:48:25;;;;;;;11.48;3.08;;;22.30;99.90;;;;;;5099705;28;20283;-71
2022/09/06 11:50:59;;;;;;;9.55;2.10;;;22.30;99.90;;;;;;5063651;28;20043;-71
2022/09/06 11:53:26;;;;;;;9.90;2.25;;;22.40;99.90;;;;;;5104313;28;20035;-70
2022/09/06 11:56:01;;;;;;;14.35;2.67;;;22.30;99.90;;;;;;5104727;28;20028;-71
2022/09/06 11:58:50;;;;;;;12.40;2.25;;;22.30;99.90;;;;;;5107593;28;20036;-71
2022/09/06 12:01:15;;;;;;;11.50;2.10;;;22.40;99.90;;;;;;5106622;28;20107;-72
2022/09/06 12:03:47;;;;;;;11.63;2.33;;;22.70;99.90;;;;;;5104728;28;20450;-72
2022/09/06 12:06:18;;;;;;;12.32;2.42;;;22.80;99.90;;;;;;5099215;28;20035;-70
2022/09/06 12:08:51;;;;;;;9.63;2.30;;;22.60;99.90;;;;;;5104347;28;20027;-73
2022/09/06 12:11:36;;;;;;;8.52;2.00;;;22.40;99.90;;;;;;5101672;28;20062;-71
2022/09/06 12:14:20;;;;;;;12.82;2.22;;;22.50;99.90;;;;;;5102609;28;20024;-71
2022/09/06 12:16:57;;;;;;;10.27;2.47;;;22.70;99.90;;;;;;5105457;28;20035;-71
2022/09/06 12:19:51;;;;;;;15.30;2.63;;;23.00;99.90;;;;;;5086212;28;20055;-71
2022/09/06 12:22:26;;;;;;;16.73;2.30;;;22.90;99.90;;;;;;5096007;28;20546;-71
2022/09/06 12:25:04;;;;;;;10.20;2.08;;;22.60;99.90;;;;;;5105160;28;20552;-71
2022/09/06 12:27:43;;;;;;;8.95;2.13;;;22.40;99.90;;;;;;5101448;28;20059;-72
2022/09/06 12:30:12;;;;;;;10.73;2.13;;;22.30;99.90;;;;;;5091741;28;20028;-69
2022/09/06 12:32:45;;;;;;;10.05;2.17;;;22.20;99.90;;;;;;5099459;28;20159;-72
2022/09/06 12:35:26;;;;;;;12.80;2.13;;;22.30;99.90;;;;;;5098917;28;20022;-71
2022/09/06 12:38:00;;;;;;;11.90;1.98;;;22.40;99.90;;;;;;5088260;28;20810;-71
2022/09/06 12:40:30;;;;;;;11.77;2.20;;;22.60;99.90;;;;;;5108597;28;20043;-71
2022/09/06 12:42:56;;;;;;;14.40;2.90;;;22.80;99.90;;;;;;5089543;28;20463;-73
2022/09/06 12:45:23;;;;;;;8.43;1.70;;;23.00;99.90;;;;;;5108226;28;20035;-71
2022/09/06 12:47:50;;;;;;;11.90;2.20;;;23.10;99.90;;;;;;5107067;28;20516;-71
2022/09/06 12:50:24;;;;;;;14.13;2.90;;;23.20;99.90;;;;;;5073079;28;20039;-72
2022/09/06 12:52:52;;;;;;;8.85;1.90;;;23.30;99.90;;;;;;5090168;28;20035;-71
2022/09/06 12:55:38;;;;;;;11.35;2.28;;;23.10;99.90;;;;;;5108466;28;20034;-71
2022/09/06 12:58:09;;;;;;;12.25;2.22;;;23.10;99.90;;;;;;5089484;28;20174;-72